createdAt,value
2023-04-16T00:01:02.779Z,7.16
2023-04-16T00:02:05.737Z,7.21
2023-04-16T00:03:08.263Z,7.19
2023-04-16T00:04:13.968Z,7.21
2023-04-16T00:05:16.981Z,7.21
2023-04-16T00:06:19.537Z,7.32
2023-04-16T00:07:21.760Z,7.30
2023-04-16T00:08:24.221Z,7.13
2023-04-16T00:09:26.561Z,7.00
2023-04-16T00:10:29.042Z,7.00
2023-04-16T00:11:31.277Z,7.16
2023-04-16T00:12:33.523Z,7.21
2023-04-16T00:13:35.977Z,7.11
2023-04-16T00:14:38.344Z,6.98
2023-04-16T00:15:40.966Z,6.93
2023-04-16T00:16:43.434Z,6.92
2023-04-16T00:17:46.962Z,7.05
2023-04-16T00:18:49.525Z,7.10
2023-04-16T00:19:51.619Z,7.17
2023-04-16T00:20:54.159Z,7.20
2023-04-16T00:21:56.494Z,7.28
2023-04-16T00:22:58.665Z,7.24
2023-04-16T00:24:01.006Z,7.19
2023-04-16T00:25:03.835Z,7.26
2023-04-16T00:26:08.075Z,7.26
2023-04-16T00:27:10.367Z,7.21
2023-04-16T00:28:12.720Z,7.22
2023-04-16T00:29:15.012Z,7.24
2023-04-16T00:30:17.491Z,7.31
2023-04-16T00:31:29.465Z,7.32
2023-04-16T00:32:32.452Z,7.30
2023-04-16T00:33:34.773Z,7.30
2023-04-16T00:34:37.056Z,7.03
2023-04-16T00:35:40.537Z,6.98
2023-04-16T00:36:43.167Z,6.99
2023-04-16T00:37:45.702Z,7.09
2023-04-16T00:38:49.081Z,7.13
2023-04-16T00:39:51.482Z,7.07
2023-04-16T00:40:53.967Z,7.05
2023-04-16T00:41:56.280Z,6.97
2023-04-16T00:42:58.517Z,6.93
2023-04-16T00:44:00.960Z,6.88
2023-04-16T00:45:05.049Z,6.77
2023-04-16T00:46:08.276Z,6.80
2023-04-16T00:47:11.341Z,6.75
2023-04-16T00:48:13.601Z,6.78
2023-04-16T00:49:16.240Z,6.84
2023-04-16T00:50:18.800Z,6.81
2023-04-16T00:51:22.403Z,6.77
2023-04-16T00:52:26.095Z,6.82
2023-04-16T00:53:28.777Z,6.93
2023-04-16T00:54:31.552Z,6.95
2023-04-16T00:55:34.212Z,6.97
2023-04-16T00:56:38.660Z,6.87
2023-04-16T00:57:40.890Z,6.87
2023-04-16T00:58:43.220Z,6.80
2023-04-16T00:59:45.715Z,6.82
2023-04-16T01:00:48.171Z,6.93
2023-04-16T01:01:51.686Z,6.92
2023-04-16T01:02:55.315Z,7.04
2023-04-16T01:03:58.590Z,7.13
2023-04-16T01:05:03.938Z,7.07
2023-04-16T01:06:07.459Z,7.00
2023-04-16T01:07:09.674Z,7.05
2023-04-16T01:08:18.104Z,7.13
2023-04-16T01:09:20.628Z,7.18
2023-04-16T01:10:22.889Z,7.29
2023-04-16T01:11:25.597Z,7.42
2023-04-16T01:12:28.322Z,7.26
2023-04-16T01:13:30.668Z,7.21
2023-04-16T01:14:34.787Z,7.06
2023-04-16T01:15:38.251Z,7.22
2023-04-16T01:16:41.157Z,7.30
2023-04-16T01:17:46.183Z,7.37
2023-04-16T01:18:48.950Z,7.29
2023-04-16T01:19:51.111Z,7.19
2023-04-16T01:20:53.534Z,7.07
2023-04-16T01:21:55.657Z,7.08
2023-04-16T01:22:57.931Z,7.17
2023-04-16T01:24:04.061Z,7.10
2023-04-16T01:25:06.509Z,6.99
2023-04-16T01:26:09.119Z,7.03
2023-04-16T01:27:11.265Z,7.15
2023-04-16T01:28:13.970Z,7.11
2023-04-16T01:29:16.811Z,7.08
2023-04-16T01:30:19.130Z,6.98
2023-04-16T01:31:23.304Z,6.91
2023-04-16T01:32:28.047Z,6.83
2023-04-16T01:33:30.437Z,6.84
2023-04-16T01:34:32.556Z,6.90
2023-04-16T01:35:34.780Z,6.89
2023-04-16T01:36:37.142Z,6.91
2023-04-16T01:37:39.459Z,6.98
2023-04-16T01:38:41.905Z,7.05
2023-04-16T01:39:44.126Z,6.97
2023-04-16T01:40:46.382Z,6.82
2023-04-16T01:41:48.611Z,6.84
2023-04-16T01:42:51.154Z,6.89
2023-04-16T01:43:53.398Z,6.91
2023-04-16T01:44:55.612Z,6.95
2023-04-16T01:46:14.820Z,7.06
2023-04-16T01:47:17.931Z,6.99
2023-04-16T01:48:20.305Z,7.02
2023-04-16T01:49:23.351Z,6.95
2023-04-16T01:50:26.157Z,6.82
2023-04-16T01:51:28.577Z,6.86
2023-04-16T01:52:30.823Z,6.87
2023-04-16T01:53:35.139Z,6.93
2023-04-16T01:54:38.137Z,6.91
2023-04-16T01:55:40.708Z,6.93
2023-04-16T01:56:44.292Z,6.85
2023-04-16T01:57:47.179Z,6.90
2023-04-16T01:58:49.875Z,7.03
2023-04-16T01:59:53.476Z,7.10
2023-04-16T02:00:57.084Z,7.09
2023-04-16T02:02:03.291Z,7.14
2023-04-16T02:03:05.836Z,7.25
2023-04-16T02:04:09.366Z,7.25
2023-04-16T02:05:11.870Z,7.28
2023-04-16T02:06:15.001Z,7.22
2023-04-16T02:07:17.221Z,7.28
2023-04-16T02:08:19.462Z,7.36
2023-04-16T02:09:23.705Z,7.22
2023-04-16T02:10:26.408Z,7.19
2023-04-16T02:11:29.136Z,7.27
2023-04-16T02:12:31.827Z,7.20
2023-04-16T02:13:34.656Z,7.11
2023-04-16T02:14:37.401Z,7.17
2023-04-16T02:15:39.945Z,7.15
2023-04-16T02:16:42.495Z,7.19
2023-04-16T02:17:48.342Z,7.03
2023-04-16T02:18:50.795Z,7.12
2023-04-16T02:19:55.982Z,7.17
2023-04-16T02:21:01.672Z,7.04
2023-04-16T02:22:04.175Z,7.01
2023-04-16T02:23:08.385Z,7.11
2023-04-16T02:24:11.779Z,7.17
2023-04-16T02:25:13.991Z,7.19
2023-04-16T02:26:16.934Z,7.25
2023-04-16T02:27:19.299Z,7.30
2023-04-16T02:28:23.578Z,7.33
2023-04-16T02:29:26.045Z,7.21
2023-04-16T02:30:31.246Z,7.17
2023-04-16T02:31:33.717Z,7.23
2023-04-16T02:32:35.878Z,7.24
2023-04-16T02:33:38.689Z,7.29
2023-04-16T02:34:42.449Z,7.29
2023-04-16T02:35:48.030Z,7.21
2023-04-16T02:36:50.455Z,7.22
2023-04-16T02:37:52.801Z,7.22
2023-04-16T02:38:55.448Z,7.29
2023-04-16T02:39:58.239Z,7.34
2023-04-16T02:41:00.844Z,7.42
2023-04-16T02:42:04.044Z,7.46
2023-04-16T02:43:06.284Z,7.40
2023-04-16T02:44:08.697Z,7.39
2023-04-16T02:45:11.323Z,7.33
2023-04-16T02:46:15.019Z,7.39
2023-04-16T02:47:17.479Z,7.46
2023-04-16T02:48:19.863Z,7.40
2023-04-16T02:49:22.211Z,7.33
2023-04-16T02:50:24.745Z,7.30
2023-04-16T02:51:27.074Z,7.31
2023-04-16T02:52:29.401Z,7.36
2023-04-16T02:53:31.537Z,7.30
2023-04-16T02:54:33.863Z,7.26
2023-04-16T02:55:36.400Z,7.31
2023-04-16T02:56:38.557Z,7.30
2023-04-16T02:57:41.796Z,7.30
2023-04-16T02:58:44.634Z,7.37
2023-04-16T02:59:47.497Z,7.31
2023-04-16T03:00:50.731Z,7.31
2023-04-16T03:01:53.972Z,7.29
2023-04-16T03:02:56.688Z,7.29
2023-04-16T03:03:59.329Z,7.26
2023-04-16T03:05:02.546Z,7.33
2023-04-16T03:06:05.180Z,7.33
2023-04-16T03:07:08.496Z,7.33
2023-04-16T03:08:12.497Z,7.41
2023-04-16T03:09:14.775Z,7.41
2023-04-16T03:10:17.523Z,7.39
2023-04-16T03:11:20.444Z,7.19
2023-04-16T03:12:22.959Z,7.18
2023-04-16T03:13:25.280Z,7.19
2023-04-16T03:14:27.523Z,7.24
2023-04-16T03:15:30.596Z,7.17
2023-04-16T03:16:33.362Z,7.19
2023-04-16T03:17:35.757Z,7.30
2023-04-16T03:18:38.054Z,7.41
2023-04-16T03:19:40.357Z,7.33
2023-04-16T03:20:43.126Z,7.36
2023-04-16T03:21:47.044Z,7.26
2023-04-16T03:22:51.857Z,7.21
2023-04-16T03:23:55.568Z,7.25
2023-04-16T03:24:58.039Z,7.19
2023-04-16T03:26:00.286Z,7.18
2023-04-16T03:27:03.534Z,7.26
2023-04-16T03:28:06.364Z,7.35
2023-04-16T03:29:09.081Z,7.26
2023-04-16T03:30:13.749Z,7.33
2023-04-16T03:31:16.429Z,7.40
2023-04-16T03:32:18.847Z,7.45
2023-04-16T03:33:22.079Z,7.49
2023-04-16T03:34:24.575Z,7.55
2023-04-16T03:35:27.384Z,7.47
2023-04-16T03:36:30.856Z,7.41
2023-04-16T03:37:34.965Z,7.35
2023-04-16T03:38:37.469Z,7.36
2023-04-16T03:39:39.910Z,7.40
2023-04-16T03:40:42.158Z,7.36
2023-04-16T03:41:44.794Z,7.17
2023-04-16T03:42:47.031Z,7.20
2023-04-16T03:43:49.664Z,7.28
2023-04-16T03:44:53.107Z,7.32
2023-04-16T03:45:56.841Z,7.30
2023-04-16T03:47:00.338Z,7.31
2023-04-16T03:48:02.650Z,7.33
2023-04-16T03:49:05.768Z,7.32
2023-04-16T03:50:11.011Z,7.28
2023-04-16T03:51:13.976Z,7.30
2023-04-16T03:52:17.480Z,7.34
2023-04-16T03:53:19.994Z,7.24
2023-04-16T03:54:23.152Z,7.32
2023-04-16T03:55:29.368Z,7.33
2023-04-16T03:56:32.927Z,7.37
2023-04-16T03:57:35.186Z,7.30
2023-04-16T03:58:39.354Z,7.33
2023-04-16T03:59:43.448Z,7.35
2023-04-16T04:00:45.934Z,7.37
2023-04-16T04:01:48.914Z,7.38
2023-04-16T04:02:51.580Z,7.40
2023-04-16T04:03:55.009Z,7.41
2023-04-16T04:04:57.255Z,7.48
2023-04-16T04:05:59.612Z,7.38
2023-04-16T04:07:04.279Z,7.42
2023-04-16T04:08:07.441Z,7.51
2023-04-16T04:09:11.263Z,7.59
2023-04-16T04:10:15.072Z,7.72
2023-04-16T04:11:17.597Z,7.76
2023-04-16T04:12:22.180Z,7.66
2023-04-16T04:13:24.851Z,7.74
2023-04-16T04:14:27.466Z,7.80
2023-04-16T04:15:29.996Z,7.81
2023-04-16T04:16:32.624Z,7.88
2023-04-16T04:17:35.838Z,7.88
2023-04-16T04:18:44.319Z,7.92
2023-04-16T04:19:54.232Z,7.84
2023-04-16T04:20:48.790Z,7.65
2023-04-16T04:21:53.010Z,7.61
2023-04-16T04:22:55.257Z,7.59
2023-04-16T04:23:59.839Z,7.61
2023-04-16T04:25:04.915Z,7.61
2023-04-16T04:26:09.313Z,7.61
2023-04-16T04:27:11.940Z,7.70
2023-04-16T04:28:14.396Z,7.50
2023-04-16T04:29:16.546Z,7.37
2023-04-16T04:30:18.987Z,7.43
2023-04-16T04:31:21.232Z,7.54
2023-04-16T04:32:23.486Z,7.65
2023-04-16T04:33:25.902Z,7.58
2023-04-16T04:34:28.055Z,7.55
2023-04-16T04:35:31.248Z,7.66
2023-04-16T04:36:34.251Z,7.58
2023-04-16T04:37:36.698Z,7.51
2023-04-16T04:38:40.858Z,7.36
2023-04-16T04:39:43.103Z,7.13
2023-04-16T04:40:52.701Z,7.12
2023-04-16T04:41:56.772Z,7.18
2023-04-16T04:42:59.083Z,7.24
2023-04-16T04:44:01.510Z,7.24
2023-04-16T04:45:05.668Z,7.14
2023-04-16T04:46:11.059Z,7.22
2023-04-16T04:47:14.847Z,7.32
2023-04-16T04:48:18.565Z,7.22
2023-04-16T04:49:21.349Z,7.22
2023-04-16T04:50:23.491Z,7.26
2023-04-16T04:51:26.515Z,7.26
2023-04-16T04:52:28.700Z,7.34
2023-04-16T04:53:30.901Z,7.31
2023-04-16T04:54:33.126Z,7.37
2023-04-16T04:55:39.504Z,7.40
2023-04-16T04:56:43.840Z,7.26
2023-04-16T04:57:46.155Z,7.31
2023-04-16T04:58:50.661Z,7.32
2023-04-16T04:59:54.668Z,7.41
2023-04-16T05:00:57.393Z,7.36
2023-04-16T05:01:59.886Z,7.28
2023-04-16T05:03:04.180Z,7.35
2023-04-16T05:04:06.550Z,7.25
2023-04-16T05:05:09.300Z,7.22
2023-04-16T05:06:12.244Z,7.35
2023-04-16T05:07:15.636Z,7.46
2023-04-16T05:08:18.057Z,7.45
2023-04-16T05:09:20.552Z,7.43
2023-04-16T05:10:23.289Z,7.40
2023-04-16T05:11:26.757Z,7.41
2023-04-16T05:12:29.127Z,7.50
2023-04-16T05:13:31.394Z,7.55
2023-04-16T05:14:34.332Z,7.65
2023-04-16T05:15:37.213Z,7.73
2023-04-16T05:16:39.717Z,7.72
2023-04-16T05:17:42.119Z,7.75
2023-04-16T05:18:44.194Z,7.68
2023-04-16T05:19:48.302Z,7.74
2023-04-16T05:20:50.792Z,7.81
2023-04-16T05:21:54.265Z,7.93
2023-04-16T05:22:56.622Z,7.96
2023-04-16T05:23:59.411Z,7.95
2023-04-16T05:25:01.798Z,7.93
2023-04-16T05:26:04.269Z,7.74
2023-04-16T05:27:06.591Z,7.78
2023-04-16T05:28:09.768Z,7.76
2023-04-16T05:29:12.551Z,7.72
2023-04-16T05:30:15.798Z,7.80
2023-04-16T05:31:18.625Z,7.85
2023-04-16T05:32:21.713Z,7.74
2023-04-16T05:33:24.701Z,7.77
2023-04-16T05:34:27.350Z,7.70
2023-04-16T05:35:29.613Z,7.80
2023-04-16T05:36:32.257Z,7.80
2023-04-16T05:37:34.698Z,7.74
2023-04-16T05:38:36.711Z,7.74
2023-04-16T05:39:39.152Z,7.69
2023-04-16T05:40:41.827Z,7.62
2023-04-16T05:41:44.167Z,7.71
2023-04-16T05:42:46.464Z,7.81
2023-04-16T05:43:49.213Z,7.79
2023-04-16T05:44:52.471Z,7.84
2023-04-16T05:45:54.786Z,7.92
2023-04-16T05:46:57.139Z,7.88
2023-04-16T05:47:59.428Z,7.88
2023-04-16T05:49:01.638Z,7.92
2023-04-16T05:50:04.067Z,7.97
2023-04-16T05:51:06.518Z,7.84
2023-04-16T05:52:09.105Z,7.87
2023-04-16T05:53:13.326Z,7.88
2023-04-16T05:54:15.498Z,7.82
2023-04-16T05:55:18.692Z,7.87
2023-04-16T05:56:21.977Z,7.94
2023-04-16T05:57:24.614Z,7.76
2023-04-16T05:58:26.746Z,7.67
2023-04-16T05:59:31.186Z,7.68
2023-04-16T06:00:34.072Z,7.65
2023-04-16T06:01:36.532Z,7.61
2023-04-16T06:02:39.646Z,7.54
2023-04-16T06:03:42.181Z,7.54
2023-04-16T06:04:46.745Z,7.56
2023-04-16T06:05:49.365Z,7.54
2023-04-16T06:06:51.974Z,7.63
2023-04-16T06:07:55.923Z,7.59
2023-04-16T06:08:59.359Z,7.66
2023-04-16T06:10:01.885Z,7.48
2023-04-16T06:11:05.071Z,7.48
2023-04-16T06:12:07.573Z,7.64
2023-04-16T06:13:11.300Z,7.59
2023-04-16T06:14:14.734Z,7.57
2023-04-16T06:15:16.992Z,7.45
2023-04-16T06:16:19.159Z,7.46
2023-04-16T06:17:22.074Z,7.50
2023-04-16T06:18:24.701Z,7.55
2023-04-16T06:19:26.947Z,7.54
2023-04-16T06:20:30.021Z,7.58
2023-04-16T06:21:33.112Z,7.62
2023-04-16T06:22:35.616Z,7.56
2023-04-16T06:23:37.853Z,7.68
2023-04-16T06:24:40.507Z,7.66
2023-04-16T06:25:42.768Z,7.71
2023-04-16T06:26:45.097Z,7.67
2023-04-16T06:27:47.351Z,7.71
2023-04-16T06:28:49.901Z,7.62
2023-04-16T06:29:54.471Z,7.70
2023-04-16T06:30:57.119Z,7.77
2023-04-16T06:32:01.603Z,7.73
2023-04-16T06:33:06.236Z,7.68
2023-04-16T06:34:09.075Z,7.70
2023-04-16T06:35:11.686Z,7.63
2023-04-16T06:36:14.404Z,7.75
2023-04-16T06:37:17.119Z,7.87
2023-04-16T06:38:19.227Z,7.88
2023-04-16T06:39:21.923Z,7.96
2023-04-16T06:40:24.796Z,7.96
2023-04-16T06:41:28.056Z,7.76
2023-04-16T06:42:32.326Z,7.64
2023-04-16T06:43:34.563Z,7.66
2023-04-16T06:44:36.813Z,7.71
2023-04-16T06:45:39.034Z,7.82
2023-04-16T06:46:41.936Z,7.82
2023-04-16T06:47:45.515Z,7.71
2023-04-16T06:48:47.801Z,7.76
2023-04-16T06:49:49.976Z,7.73
2023-04-16T06:50:52.418Z,7.72
2023-04-16T06:51:54.705Z,7.67
2023-04-16T06:52:57.177Z,7.68
2023-04-16T06:53:59.484Z,7.62
2023-04-16T06:55:02.154Z,7.64
2023-04-16T06:56:05.820Z,7.73
2023-04-16T06:57:08.053Z,7.78
2023-04-16T06:58:10.476Z,7.82
2023-04-16T06:59:13.729Z,7.78
2023-04-16T07:00:17.211Z,7.76
2023-04-16T07:01:19.855Z,7.80
2023-04-16T07:02:23.272Z,7.88
2023-04-16T07:03:27.076Z,7.81
2023-04-16T07:04:30.674Z,7.73
2023-04-16T07:05:33.621Z,7.84
2023-04-16T07:06:35.913Z,7.84
2023-04-16T07:07:38.044Z,7.97
2023-04-16T07:08:40.173Z,8.07
2023-04-16T07:09:42.835Z,8.09
2023-04-16T07:10:45.590Z,7.99
2023-04-16T07:11:48.904Z,7.84
2023-04-16T07:12:52.552Z,7.84
2023-04-16T07:13:55.156Z,7.72
2023-04-16T07:14:57.708Z,7.80
2023-04-16T07:16:00.025Z,7.73
2023-04-16T07:17:02.975Z,7.76
2023-04-16T07:18:05.226Z,7.78
2023-04-16T07:19:08.319Z,7.70
2023-04-16T07:20:12.098Z,7.69
2023-04-16T07:21:14.972Z,7.70
2023-04-16T07:22:17.629Z,7.82
2023-04-16T07:23:20.396Z,7.78
2023-04-16T07:24:22.620Z,7.96
2023-04-16T07:25:25.453Z,8.03
2023-04-16T07:26:27.889Z,7.98
2023-04-16T07:27:30.212Z,7.98
2023-04-16T07:28:32.908Z,7.91
2023-04-16T07:29:35.239Z,7.92
2023-04-16T07:30:39.658Z,7.70
2023-04-16T07:31:43.158Z,7.74
2023-04-16T07:32:46.107Z,7.79
2023-04-16T07:33:49.025Z,7.85
2023-04-16T07:34:52.629Z,7.71
2023-04-16T07:35:54.921Z,7.72
2023-04-16T07:36:57.227Z,7.75
2023-04-16T07:37:59.462Z,7.79
2023-04-16T07:39:01.685Z,7.79
2023-04-16T07:40:04.899Z,7.77
2023-04-16T07:41:07.634Z,7.84
2023-04-16T07:42:10.590Z,7.79
2023-04-16T07:43:14.880Z,7.77
2023-04-16T07:44:17.200Z,7.92
2023-04-16T07:45:22.530Z,8.03
2023-04-16T07:46:30.464Z,8.04
2023-04-16T07:47:30.097Z,8.05
2023-04-16T07:48:32.376Z,8.08
2023-04-16T07:49:34.750Z,8.07
2023-04-16T07:50:37.257Z,8.05
2023-04-16T07:51:41.648Z,8.13
2023-04-16T07:52:45.838Z,8.22
2023-04-16T07:53:50.027Z,8.27
2023-04-16T07:54:52.737Z,8.28
2023-04-16T07:55:56.855Z,8.24
2023-04-16T07:56:59.561Z,8.21
2023-04-16T07:58:07.926Z,8.19
2023-04-16T07:59:22.098Z,8.29
2023-04-16T08:00:15.470Z,8.33
2023-04-16T08:01:17.899Z,8.17
2023-04-16T08:02:20.445Z,8.21
2023-04-16T08:03:23.112Z,8.32
2023-04-16T08:04:26.466Z,8.31
2023-04-16T08:05:29.120Z,8.36
2023-04-16T08:06:31.752Z,8.36
2023-04-16T08:07:34.943Z,8.46
2023-04-16T08:08:39.658Z,8.52
2023-04-16T08:09:49.281Z,8.50
2023-04-16T08:10:53.615Z,8.52
2023-04-16T08:11:55.939Z,8.52
2023-04-16T08:13:01.057Z,8.33
2023-04-16T08:14:03.458Z,8.42
2023-04-16T08:15:07.011Z,8.38
2023-04-16T08:16:09.649Z,8.41
2023-04-16T08:17:13.333Z,8.49
2023-04-16T08:18:15.677Z,8.54
2023-04-16T08:19:18.212Z,8.45
2023-04-16T08:20:20.694Z,8.56
2023-04-16T08:21:23.040Z,8.50
2023-04-16T08:22:26.261Z,8.61
2023-04-16T08:23:29.919Z,8.45
2023-04-16T08:24:32.349Z,8.45
2023-04-16T08:25:39.404Z,8.35
2023-04-16T08:26:42.388Z,8.47
2023-04-16T08:27:44.815Z,8.42
2023-04-16T08:28:47.063Z,8.45
2023-04-16T08:29:49.341Z,8.46
2023-04-16T08:30:51.932Z,8.42
2023-04-16T08:31:55.097Z,8.43
2023-04-16T08:32:57.686Z,8.52
2023-04-16T08:34:00.706Z,8.40
2023-04-16T08:35:03.250Z,8.42
2023-04-16T08:36:07.889Z,8.57
2023-04-16T08:37:10.700Z,8.57
2023-04-16T08:38:14.189Z,8.62
2023-04-16T08:39:16.558Z,8.52
2023-04-16T08:40:19.923Z,8.61
2023-04-16T08:41:25.872Z,8.74
2023-04-16T08:42:35.982Z,8.78
2023-04-16T08:43:41.003Z,8.88
2023-04-16T08:44:49.318Z,8.90
2023-04-16T08:45:56.363Z,8.99
2023-04-16T08:47:00.912Z,8.94
2023-04-16T08:48:05.665Z,8.99
2023-04-16T08:49:08.759Z,9.05
2023-04-16T08:50:15.887Z,9.11
2023-04-16T08:51:21.607Z,9.08
2023-04-16T08:52:27.166Z,9.18
2023-04-16T08:53:43.073Z,9.20
2023-04-16T08:54:57.292Z,9.24
2023-04-16T08:56:05.404Z,9.14
2023-04-16T08:57:11.355Z,9.17
2023-04-16T08:59:27.680Z,9.13
2023-04-16T09:00:33.294Z,8.95
2023-04-16T09:01:38.407Z,9.04
2023-04-16T09:02:40.898Z,9.10
2023-04-16T09:03:46.504Z,9.07
2023-04-16T09:04:50.727Z,9.06
2023-04-16T09:05:55.591Z,9.00
2023-04-16T09:06:59.087Z,9.01
2023-04-16T09:08:02.500Z,9.08
2023-04-16T09:09:07.429Z,9.14
2023-04-16T09:10:11.603Z,9.11
2023-04-16T09:11:16.100Z,9.28
2023-04-16T09:12:19.937Z,9.37
2023-04-16T09:13:23.424Z,9.51
2023-04-16T09:14:26.436Z,9.46
2023-04-16T09:15:29.568Z,9.45
2023-04-16T09:16:34.554Z,9.27
2023-04-16T09:17:37.043Z,9.29
2023-04-16T09:18:41.551Z,9.41
2023-04-16T09:20:57.541Z,9.55
2023-04-16T09:21:59.932Z,9.29
2023-04-16T09:23:03.210Z,9.34
2023-04-16T09:24:06.152Z,9.33
2023-04-16T09:25:09.303Z,9.38
2023-04-16T09:26:13.086Z,9.25
2023-04-16T09:27:16.671Z,9.24
2023-04-16T09:28:48.151Z,9.30
2023-04-16T09:29:56.242Z,9.18
2023-04-16T09:31:15.014Z,9.18
2023-04-16T09:32:17.804Z,9.23
2023-04-16T09:33:23.266Z,9.14
2023-04-16T09:34:26.541Z,9.10
2023-04-16T09:35:49.255Z,9.02
2023-04-16T09:36:52.767Z,9.12
2023-04-16T09:37:57.568Z,9.20
2023-04-16T09:39:01.379Z,9.30
2023-04-16T09:40:05.517Z,9.29
2023-04-16T09:41:08.585Z,9.37
2023-04-16T09:42:11.457Z,9.35
2023-04-16T09:43:19.000Z,9.27
2023-04-16T09:44:25.521Z,9.24
2023-04-16T09:45:31.487Z,9.33
2023-04-16T09:46:35.721Z,9.28
2023-04-16T09:47:40.735Z,9.29
2023-04-16T09:48:45.593Z,9.31
2023-04-16T09:49:49.995Z,9.23
2023-04-16T09:50:54.057Z,9.20
2023-04-16T09:51:56.590Z,9.15
2023-04-16T09:53:03.080Z,9.14
2023-04-16T09:54:06.742Z,9.02
2023-04-16T09:55:08.942Z,9.03
2023-04-16T09:56:13.259Z,8.95
2023-04-16T09:57:22.790Z,8.72
2023-04-16T09:58:25.753Z,8.82
2023-04-16T09:59:29.845Z,8.97
2023-04-16T10:00:32.548Z,8.66
2023-04-16T10:01:37.326Z,8.76
2023-04-16T10:02:41.747Z,8.84
2023-04-16T10:03:48.179Z,8.91
2023-04-16T10:04:52.892Z,8.98
2023-04-16T10:05:56.346Z,9.08
2023-04-16T10:07:06.316Z,9.05
2023-04-16T10:08:13.364Z,8.92
2023-04-16T10:09:16.541Z,8.93
2023-04-16T10:10:19.280Z,8.95
2023-04-16T10:11:21.579Z,9.09
2023-04-16T10:12:24.005Z,9.09
2023-04-16T10:13:28.297Z,9.08
2023-04-16T10:14:30.804Z,8.98
2023-04-16T10:15:33.813Z,9.02
2023-04-16T10:16:38.609Z,8.98
2023-04-16T10:17:41.822Z,9.07
2023-04-16T10:18:46.100Z,9.02
2023-04-16T10:19:49.406Z,8.96
2023-04-16T10:20:52.690Z,8.84
2023-04-16T10:21:57.105Z,8.73
2023-04-16T10:23:02.571Z,8.61
2023-04-16T10:24:06.126Z,8.61
2023-04-16T10:25:10.889Z,8.59
2023-04-16T10:26:13.742Z,8.61
2023-04-16T10:27:16.638Z,8.68
2023-04-16T10:28:19.380Z,8.71
2023-04-16T10:29:23.705Z,8.71
2023-04-16T10:30:29.346Z,8.73
2023-04-16T10:31:32.787Z,8.84
2023-04-16T10:32:38.114Z,8.82
2023-04-16T10:33:42.113Z,8.69
2023-04-16T10:34:46.136Z,8.69
2023-04-16T10:36:01.375Z,8.69
2023-04-16T10:36:55.494Z,8.68
2023-04-16T10:37:59.362Z,8.79
2023-04-16T10:39:01.838Z,8.71
2023-04-16T10:41:26.251Z,8.66
2023-04-16T10:42:28.630Z,8.69
2023-04-16T10:43:33.533Z,8.89
2023-04-16T10:44:37.041Z,8.67
2023-04-16T10:45:39.909Z,8.64
2023-04-16T10:46:45.937Z,8.78
2023-04-16T10:47:48.988Z,8.70
2023-04-16T10:48:54.050Z,8.79
2023-04-16T10:49:58.652Z,8.85
2023-04-16T10:51:01.141Z,8.77
2023-04-16T10:52:17.851Z,8.90
2023-04-16T10:53:27.406Z,9.05
2023-04-16T10:54:31.073Z,8.79
2023-04-16T10:55:37.040Z,8.70
2023-04-16T10:56:40.915Z,8.82
2023-04-16T10:57:43.208Z,8.87
2023-04-16T10:58:45.575Z,8.87
2023-04-16T10:59:49.033Z,9.00
2023-04-16T11:00:51.882Z,8.93
2023-04-16T11:01:56.999Z,8.97
2023-04-16T11:03:01.864Z,8.95
2023-04-16T11:04:25.633Z,8.96
2023-04-16T11:05:31.897Z,8.92
2023-04-16T11:06:34.992Z,8.99
2023-04-16T11:07:39.217Z,8.98
2023-04-16T11:08:54.145Z,8.98
2023-04-16T11:10:00.297Z,9.03
2023-04-16T11:11:05.544Z,9.00
2023-04-16T11:12:11.141Z,9.06
2023-04-16T11:13:14.046Z,9.14
2023-04-16T11:14:16.850Z,9.24
2023-04-16T11:15:19.505Z,9.39
2023-04-16T11:16:22.119Z,9.38
2023-04-16T11:17:32.863Z,9.44
2023-04-16T11:18:35.934Z,9.49
2023-04-16T11:19:43.729Z,9.45
2023-04-16T11:20:46.343Z,9.45
2023-04-16T11:21:51.383Z,9.42
2023-04-16T11:22:55.502Z,9.51
2023-04-16T11:23:57.707Z,9.50
2023-04-16T11:25:00.560Z,9.58
2023-04-16T11:26:02.847Z,9.71
2023-04-16T11:27:05.664Z,9.81
2023-04-16T11:28:07.997Z,9.80
2023-04-16T11:29:17.589Z,9.72
2023-04-16T11:30:29.823Z,9.71
2023-04-16T11:31:32.276Z,9.78
2023-04-16T11:32:35.717Z,9.78
2023-04-16T11:33:38.860Z,9.74
2023-04-16T11:34:46.560Z,9.64
2023-04-16T11:36:01.392Z,9.71
2023-04-16T11:37:03.868Z,9.75
2023-04-16T11:38:06.754Z,9.81
2023-04-16T11:39:10.166Z,9.82
2023-04-16T11:40:13.353Z,9.83
2023-04-16T11:41:21.554Z,9.81
2023-04-16T11:42:23.833Z,9.80
2023-04-16T11:43:26.607Z,9.82
2023-04-16T11:44:29.147Z,9.87
2023-04-16T11:45:31.383Z,9.88
2023-04-16T11:46:41.273Z,9.92
2023-04-16T11:47:49.792Z,9.90
2023-04-16T11:48:55.059Z,9.59
2023-04-16T11:50:01.198Z,9.65
2023-04-16T11:51:03.587Z,9.39
2023-04-16T11:52:06.907Z,9.30
2023-04-16T11:53:09.374Z,9.31
2023-04-16T11:54:22.801Z,9.33
2023-04-16T11:55:25.818Z,9.38
2023-04-16T11:56:30.237Z,9.46
2023-04-16T11:57:33.119Z,9.54
2023-04-16T11:58:35.351Z,9.64
2023-04-16T11:59:37.495Z,9.68
2023-04-16T12:00:42.885Z,9.54
2023-04-16T12:01:51.460Z,9.60
2023-04-16T12:02:57.190Z,9.61
2023-04-16T12:04:02.632Z,9.61
2023-04-16T12:05:08.811Z,9.50
2023-04-16T12:06:11.460Z,9.41
2023-04-16T12:07:15.078Z,9.32
2023-04-16T12:08:29.226Z,9.37
2023-04-16T12:09:32.016Z,9.39
2023-04-16T12:10:54.594Z,9.42
2023-04-16T12:11:57.387Z,9.44
2023-04-16T12:13:14.176Z,9.53
2023-04-16T12:14:16.650Z,9.61
2023-04-16T12:15:20.017Z,9.68
2023-04-16T12:16:25.679Z,9.76
2023-04-16T12:17:28.059Z,9.77
2023-04-16T12:18:30.684Z,9.73
2023-04-16T12:19:33.054Z,9.77
2023-04-16T12:20:43.480Z,9.72
2023-04-16T12:21:47.854Z,9.74
2023-04-16T12:22:52.225Z,9.83
2023-04-16T12:23:55.123Z,9.76
2023-04-16T12:25:02.922Z,9.86
2023-04-16T12:26:11.315Z,9.89
2023-04-16T12:27:16.002Z,9.78
2023-04-16T12:28:32.137Z,9.61
2023-04-16T12:29:34.949Z,9.70
2023-04-16T12:30:40.980Z,9.83
2023-04-16T12:31:43.852Z,9.92
2023-04-16T12:32:48.196Z,9.92
2023-04-16T12:34:02.929Z,10.00
2023-04-16T12:35:05.519Z,10.00
2023-04-16T12:36:19.246Z,10.12
2023-04-16T12:37:21.980Z,10.14
2023-04-16T12:38:26.156Z,10.10
2023-04-16T12:39:29.425Z,10.09
2023-04-16T12:40:31.717Z,10.05
2023-04-16T12:41:38.214Z,10.12
2023-04-16T12:42:40.645Z,10.12
2023-04-16T12:43:42.884Z,10.15
2023-04-16T12:44:45.317Z,10.15
2023-04-16T12:45:48.791Z,10.22
2023-04-16T12:46:52.278Z,10.22
2023-04-16T12:47:55.263Z,10.15
2023-04-16T12:48:57.639Z,10.19
2023-04-16T12:50:00.123Z,10.22
2023-04-16T12:51:03.386Z,10.05
2023-04-16T12:52:07.005Z,10.05
2023-04-16T12:53:11.639Z,10.01
2023-04-16T12:54:14.564Z,9.94
2023-04-16T12:55:16.941Z,9.90
2023-04-16T12:56:20.144Z,9.99
2023-04-16T12:57:24.800Z,10.11
2023-04-16T12:58:27.313Z,10.16
2023-04-16T12:59:30.064Z,10.19
2023-04-16T13:00:32.293Z,10.25
2023-04-16T13:01:36.596Z,10.25
2023-04-16T13:02:40.028Z,10.29
2023-04-16T13:03:42.674Z,10.32
2023-04-16T13:04:45.117Z,10.27
2023-04-16T13:05:48.166Z,10.22
2023-04-16T13:06:51.099Z,10.16
2023-04-16T13:07:53.914Z,10.18
2023-04-16T13:08:56.693Z,10.12
2023-04-16T13:09:59.631Z,9.91
2023-04-16T13:11:03.399Z,9.97
2023-04-16T13:12:07.124Z,10.03
2023-04-16T13:13:09.794Z,10.10
2023-04-16T13:14:12.634Z,10.11
2023-04-16T13:15:15.228Z,10.06
2023-04-16T13:16:18.110Z,10.12
2023-04-16T13:17:20.490Z,9.98
2023-04-16T13:18:23.941Z,9.98
2023-04-16T13:19:28.552Z,10.00
2023-04-16T13:20:30.955Z,10.06
2023-04-16T13:21:34.936Z,9.97
2023-04-16T13:22:38.014Z,10.04
2023-04-16T13:23:42.859Z,10.06
2023-04-16T13:24:46.827Z,10.05
2023-04-16T13:25:50.674Z,10.04
2023-04-16T13:26:53.185Z,10.08
2023-04-16T13:27:56.528Z,10.13
2023-04-16T13:28:59.282Z,10.10
2023-04-16T13:30:01.625Z,10.11
2023-04-16T13:31:05.856Z,10.13
2023-04-16T13:32:08.331Z,10.06
2023-04-16T13:33:12.940Z,9.89
2023-04-16T13:34:15.841Z,9.95
2023-04-16T13:35:18.208Z,10.02
2023-04-16T13:36:20.534Z,9.91
2023-04-16T13:37:22.665Z,9.95
2023-04-16T13:38:25.901Z,9.99
2023-04-16T13:39:30.025Z,9.88
2023-04-16T13:40:33.533Z,9.75
2023-04-16T13:41:39.968Z,9.84
2023-04-16T13:42:42.328Z,9.94
2023-04-16T13:43:44.467Z,9.84
2023-04-16T13:44:50.940Z,9.89
2023-04-16T13:46:01.139Z,9.68
2023-04-16T13:47:32.657Z,9.70
2023-04-16T13:48:24.915Z,9.78
2023-04-16T13:49:27.355Z,9.68
2023-04-16T13:50:30.183Z,9.74
2023-04-16T13:51:34.738Z,9.67
2023-04-16T13:52:37.330Z,9.68
2023-04-16T13:53:39.425Z,9.68
2023-04-16T13:54:43.211Z,9.48
2023-04-16T13:55:49.118Z,9.42
2023-04-16T13:56:51.559Z,9.45
2023-04-16T13:57:55.698Z,9.52
2023-04-16T13:58:58.341Z,9.52
2023-04-16T14:00:01.069Z,9.49
2023-04-16T14:01:03.486Z,9.62
2023-04-16T14:02:06.341Z,9.61
2023-04-16T14:03:08.768Z,9.50
2023-04-16T14:04:13.101Z,9.55
2023-04-16T14:05:15.387Z,9.63
2023-04-16T14:06:18.986Z,9.69
2023-04-16T14:07:23.330Z,9.70
2023-04-16T14:08:26.643Z,9.73
2023-04-16T14:09:30.853Z,9.62
2023-04-16T14:10:33.251Z,9.68